Star Lutas — V7JI6 — position and weather

sailwx.info

Track history (hours):
 
Tides and Currents Weather Stations Pressure Air Temp Water Temp Dewpoint Dewpoint Depression Visibility Wind Speed Wind Dir Waves Ship Positions

Star Lutas

Last reported at 2018-Jan-21 17:19 UTC. Time now 2018-Feb-21 01:50 UTC.
Position N 09°11' W 079°53'.
Warning: this ship's position is 30 days out of date.

Length 199 m; draft 11.9 m.

Type: Cargo ship. MMSI: 538006056.

Date/timePositionNaut miles runAvg speedWind from/ knotsBaromVisibWave heightAir tempDewpointWater temp
2018-Jan-21 17:19N 09°11' W 079°53'3 8.7
2018-Jan-21 17:00N 09°13' W 079°55'3 5.3
2018-Jan-21 16:30N 09°15' W 079°55'0 0.3
2018-Jan-21 15:53N 09°15' W 079°55'0 0.0
2018-Jan-21 13:41N 09°15' W 079°55'0 0.1
2018-Jan-21 13:29N 09°15' W 079°55'0 0.0
2018-Jan-21 12:59N 09°15' W 079°55'0 0.1
2018-Jan-21 12:26N 09°15' W 079°55'0 0.2
2018-Jan-21 11:59N 09°15' W 079°55'0 0.2
2018-Jan-21 11:30N 09°15' W 079°55'1 1.8
2018-Jan-21 11:00N 09°16' W 079°55'0 0.4
2018-Jan-21 10:30N 09°16' W 079°55'0 0.4
2018-Jan-21 10:00N 09°17' W 079°55'1 1.0
2018-Jan-21 09:29N 09°17' W 079°55'2 3.5
2018-Jan-21 09:00N 09°19' W 079°55'3 6.7
2018-Jan-21 08:30N 09°22' W 079°55'2 5.0
2018-Jan-21 08:00N 09°25' W 079°55'1 1.5
2018-Jan-21 07:30N 09°25' W 079°56'0 0.1
2018-Jan-21 07:00N 09°25' W 079°56'0 0.0
2018-Jan-21 06:30N 09°25' W 079°56'0 0.0
2018-Jan-21 06:00N 09°25' W 079°56'0 0.1
2018-Jan-21 05:30N 09°25' W 079°56'0 0.0
2018-Jan-21 05:00N 09°25' W 079°56'0 0.3
2018-Jan-21 04:30N 09°25' W 079°56'1 1.9
2018-Jan-21 04:00N 09°26' W 079°56'5 9.1
2018-Jan-21 03:30N 09°30' W 079°54'611.1
2018-Jan-21 03:00N 09°36' W 079°52'  
2018-Jan-12 15:00N 29°45' W 095°04'3 5.7
2018-Jan-12 14:30N 29°44' W 095°07'3 6.0
2018-Jan-12 14:00N 29°45' W 095°11'3 5.8
2018-Jan-12 13:30N 29°44' W 095°14'  
Track history (hours):
 
Tides and Currents Weather Stations Pressure Air Temp Water Temp Dewpoint Dewpoint Depression Visibility Wind Speed Wind Dir Waves Ship Positions

Star Lutas

Last reported at 2018-Jan-21 17:19 UTC. Time now 2018-Feb-21 01:50 UTC.
Position N 09°11' W 079°53'.
Warning: this ship's position is 30 days out of date.

Length 199 m; draft 11.9 m.

Type: Cargo ship. MMSI: 538006056.

Date/timePositionNaut miles runAvg speedWind from/ knotsBaromVisibWave heightAir tempDewpointWater temp
2018-Jan-21 17:19N 09°11' W 079°53'3 8.7
2018-Jan-21 17:00N 09°13' W 079°55'3 5.3
2018-Jan-21 16:30N 09°15' W 079°55'0 0.3
2018-Jan-21 15:53N 09°15' W 079°55'0 0.0
2018-Jan-21 13:41N 09°15' W 079°55'0 0.1
2018-Jan-21 13:29N 09°15' W 079°55'0 0.0
2018-Jan-21 12:59N 09°15' W 079°55'0 0.1
2018-Jan-21 12:26N 09°15' W 079°55'0 0.2
2018-Jan-21 11:59N 09°15' W 079°55'0 0.2
2018-Jan-21 11:30N 09°15' W 079°55'1 1.8
2018-Jan-21 11:00N 09°16' W 079°55'0 0.4
2018-Jan-21 10:30N 09°16' W 079°55'0 0.4
2018-Jan-21 10:00N 09°17' W 079°55'1 1.0
2018-Jan-21 09:29N 09°17' W 079°55'2 3.5
2018-Jan-21 09:00N 09°19' W 079°55'3 6.7
2018-Jan-21 08:30N 09°22' W 079°55'2 5.0
2018-Jan-21 08:00N 09°25' W 079°55'1 1.5
2018-Jan-21 07:30N 09°25' W 079°56'0 0.1
2018-Jan-21 07:00N 09°25' W 079°56'0 0.0
2018-Jan-21 06:30N 09°25' W 079°56'0 0.0
2018-Jan-21 06:00N 09°25' W 079°56'0 0.1
2018-Jan-21 05:30N 09°25' W 079°56'0 0.0
2018-Jan-21 05:00N 09°25' W 079°56'0 0.3
2018-Jan-21 04:30N 09°25' W 079°56'1 1.9
2018-Jan-21 04:00N 09°26' W 079°56'5 9.1
2018-Jan-21 03:30N 09°30' W 079°54'611.1
2018-Jan-21 03:00N 09°36' W 079°52'  
2018-Jan-12 15:00N 29°45' W 095°04'3 5.7
2018-Jan-12 14:30N 29°44' W 095°07'3 6.0
2018-Jan-12 14:00N 29°45' W 095°11'3 5.8
2018-Jan-12 13:30N 29°44' W 095°14'  

Dump ship's entire track history